Time;durP1;ratioP1;P1;durP2;ratioP2;P2;SDS_P1;SDS_P2;PMS_P1;PMS_P2;Temp;Humidity;BMP_temperature;BMP_pressure;BME280_temperature;BME280_humidity;BME280_pressure;Samples;Min_cycle;Max_cycle;Signal;HPM_P1;HPM_P2
2021/07/18 00:02:27;;;;;;;44.20;24.83;;;;;;;24.87;100.00;96469.53;5042649;28;20077;-58
2021/07/18 00:04:56;;;;;;;35.50;24.02;;;;;;;24.90;100.00;96462.84;5049088;28;20072;-55
2021/07/18 00:07:24;;;;;;;37.13;25.65;;;;;;;25.47;100.00;96453.06;5046577;28;20155;-57
2021/07/18 00:09:54;;;;;;;40.20;24.95;;;;;;;24.87;100.00;96454.16;5042813;28;20511;-56
2021/07/18 00:12:22;;;;;;;33.47;23.75;;;;;;;24.85;100.00;96442.00;5042576;28;20065;-58
2021/07/18 00:14:50;;;;;;;34.30;23.33;;;;;;;24.58;100.00;96438.94;5039947;28;20499;-59
2021/07/18 00:17:19;;;;;;;34.65;24.10;;;;;;;24.52;100.00;96435.28;5043936;28;20083;-57
2021/07/18 00:19:47;;;;;;;34.35;23.80;;;;;;;24.47;100.00;96435.19;5043432;28;20061;-58
2021/07/18 00:22:16;;;;;;;33.50;21.80;;;;;;;24.45;100.00;96431.88;5044103;28;20156;-56
2021/07/18 00:24:44;;;;;;;33.75;23.15;;;;;;;24.57;100.00;96432.72;5038670;28;20057;-60
2021/07/18 00:27:14;;;;;;;35.92;24.13;;;;;;;24.74;100.00;96421.22;5042780;28;20396;-57
2021/07/18 00:29:44;;;;;;;33.78;22.77;;;;;;;24.30;100.00;96418.84;5041637;28;20436;-59
2021/07/18 00:32:12;;;;;;;33.08;23.50;;;;;;;24.41;100.00;96424.50;5041412;28;20099;-51
2021/07/18 00:34:40;;;;;;;35.55;22.92;;;;;;;24.68;100.00;96420.31;5042522;28;20374;-59
2021/07/18 00:37:09;;;;;;;37.50;23.80;;;;;;;24.61;100.00;96415.03;5042929;28;20084;-60
2021/07/18 00:39:37;;;;;;;44.92;23.95;;;;;;;24.77;100.00;96416.19;5047638;28;20061;-59
2021/07/18 00:42:06;;;;;;;34.75;24.10;;;;;;;24.50;100.00;96418.56;5043685;28;20084;-60
2021/07/18 00:44:36;;;;;;;34.08;22.33;;;;;;;24.68;100.00;96412.22;5039950;28;20077;-57
2021/07/18 00:47:04;;;;;;;35.35;24.00;;;;;;;24.85;100.00;96412.31;5040527;28;20080;-60
2021/07/18 00:49:33;;;;;;;32.63;22.65;;;;;;;24.78;100.00;96415.16;5044705;28;20527;-56
2021/07/18 00:52:01;;;;;;;28.60;20.92;;;;;;;24.61;100.00;96416.91;5042572;28;20072;-59
2021/07/18 00:54:31;;;;;;;32.38;18.77;;;;;;;24.30;100.00;96409.94;5045252;28;20064;-58
2021/07/18 00:57:01;;;;;;;28.55;20.75;;;;;;;24.44;100.00;96407.88;5045547;28;20471;-59
2021/07/18 00:59:30;;;;;;;30.27;21.08;;;;;;;24.60;100.00;96407.16;5043036;28;20088;-58
2021/07/18 01:01:59;;;;;;;30.98;19.80;;;;;;;24.30;100.00;96410.75;5039132;28;20080;-58
2021/07/18 01:04:28;;;;;;;;;;;;;;;24.52;100.00;96407.50;5038333;28;20057;-59
2021/07/18 01:06:57;;;;;;;25.77;19.02;;;;;;;24.74;100.00;96408.59;5044623;28;19960;-59
2021/07/18 01:09:25;;;;;;;28.10;19.30;;;;;;;24.42;100.00;96416.19;5041603;28;20069;-57
2021/07/18 01:11:54;;;;;;;27.73;17.23;;;;;;;24.43;100.00;96411.59;5040455;28;20532;-57
2021/07/18 01:14:23;;;;;;;26.88;17.23;;;;;;;24.31;100.00;96417.78;5044587;28;20084;-59
2021/07/18 01:16:51;;;;;;;28.02;19.17;;;;;;;24.73;100.00;96417.72;5045388;28;20092;-59
2021/07/18 01:19:22;;;;;;;24.65;17.42;;;;;;;24.31;100.00;96414.28;5042947;28;20068;-58
2021/07/18 01:21:58;;;;;;;20.70;16.85;;;;;;;24.30;100.00;96415.34;5043258;28;20448;-56
2021/07/18 01:24:27;;;;;;;24.02;16.42;;;;;;;24.33;100.00;96423.78;5043350;28;20490;-58
2021/07/18 01:26:56;;;;;;;26.02;16.77;;;;;;;24.69;100.00;96421.13;5036726;28;20076;-60
2021/07/18 01:29:27;;;;;;;30.55;17.30;;;;;;;24.38;100.00;96420.38;5039445;28;20057;-59
2021/07/18 01:31:55;;;;;;;;;;;;;;;24.37;100.00;96414.16;5041568;28;20072;-55
2021/07/18 01:34:24;;;;;;;24.65;15.38;;;;;;;24.59;100.00;96403.63;5041644;28;19959;-59
2021/07/18 01:36:53;;;;;;;21.40;15.13;;;;;;;24.45;100.00;96421.09;5040069;28;20463;-58
2021/07/18 01:39:23;;;;;;;19.75;14.57;;;;;;;24.23;100.00;96412.75;5045020;28;20076;-60
2021/07/18 01:41:56;;;;;;;18.35;12.65;;;;;;;24.03;100.00;96406.84;5040327;28;20065;-57
2021/07/18 01:44:25;;;;;;;22.35;14.32;;;;;;;24.51;100.00;96411.28;5038782;28;20527;-58
2021/07/18 01:46:54;;;;;;;16.50;12.98;;;;;;;24.22;100.00;96419.16;5038559;28;20088;-58
2021/07/18 01:49:22;;;;;;;20.88;14.07;;;;;;;24.45;100.00;96414.91;5036834;28;20496;-57
2021/07/18 01:51:50;;;;;;;24.83;14.63;;;;;;;24.31;100.00;96415.09;5039564;28;20069;-55
2021/07/18 01:54:19;;;;;;;17.98;13.18;;;;;;;24.08;100.00;96410.47;5036822;28;20711;-57
2021/07/18 01:56:49;;;;;;;20.15;13.10;;;;;;;24.14;100.00;96406.84;5042491;28;20064;-57
2021/07/18 01:59:18;;;;;;;18.17;13.02;;;;;;;24.10;100.00;96410.25;5040047;28;20080;-53
2021/07/18 02:01:46;;;;;;;22.13;12.65;;;;;;;24.03;100.00;96412.22;5039782;28;20455;-54
2021/07/18 02:04:15;;;;;;;16.17;12.35;;;;;;;24.60;100.00;96409.84;5036989;28;20451;-56
2021/07/18 02:06:44;;;;;;;20.17;13.75;;;;;;;25.05;100.00;96415.47;5037808;28;20068;-59
2021/07/18 02:09:12;;;;;;;19.92;13.38;;;;;;;24.96;100.00;96408.78;5037420;28;20071;-57
2021/07/18 02:11:41;;;;;;;19.20;13.13;;;;;;;24.78;100.00;96409.75;5040836;28;20075;-59
2021/07/18 02:14:10;;;;;;;20.38;12.57;;;;;;;24.26;100.00;96408.75;5039274;28;20084;-57
2021/07/18 02:16:39;;;;;;;18.27;12.13;;;;;;;24.00;100.00;96408.13;5042327;28;20037;-59
2021/07/18 02:19:09;;;;;;;18.48;12.43;;;;;;;24.31;100.00;96415.09;5039111;28;20069;-57
2021/07/18 02:21:39;;;;;;;17.75;12.07;;;;;;;24.26;100.00;96406.88;5034066;28;20416;-58
2021/07/18 02:24:07;;;;;;;16.95;11.98;;;;;;;24.28;100.00;96417.44;5040907;28;20072;-59
2021/07/18 02:26:37;;;;;;;17.75;11.63;;;;;;;23.92;100.00;96409.28;5039447;28;20080;-59
2021/07/18 02:29:06;;;;;;;16.70;10.77;;;;;;;24.10;100.00;96405.69;5037099;28;20467;-59
2021/07/18 02:31:35;;;;;;;16.00;10.15;;;;;;;23.91;100.00;96412.19;5043484;28;20091;-59
2021/07/18 02:34:05;;;;;;;14.50;10.68;;;;;;;23.93;100.00;96402.84;5039527;28;20081;-57
2021/07/18 02:36:33;;;;;;;15.00;10.60;;;;;;;24.11;100.00;96409.19;5036761;28;20324;-58
2021/07/18 02:39:02;;;;;;;15.02;10.40;;;;;;;24.22;100.00;96400.28;5039133;28;20065;-59
2021/07/18 02:41:34;;;;;;;14.32;10.30;;;;;;;24.01;100.00;96403.53;5043846;28;20110;-58
2021/07/18 02:44:03;;;;;;;13.43;9.38;;;;;;;24.02;100.00;96410.56;5040875;28;20099;-53
2021/07/18 02:46:32;;;;;;;17.92;10.00;;;;;;;24.03;100.00;96407.66;5039016;28;20064;-56
2021/07/18 02:49:02;;;;;;;17.55;10.57;;;;;;;24.08;100.00;96412.34;5035033;28;20060;-58
2021/07/18 02:51:30;;;;;;;14.45;9.77;;;;;;;24.23;100.00;96407.34;5038331;28;20057;-58
2021/07/18 02:53:58;;;;;;;15.65;9.98;;;;;;;23.96;100.00;96406.13;5040260;28;20557;-59
2021/07/18 02:56:27;;;;;;;13.82;9.38;;;;;;;23.90;100.00;96408.66;5036522;28;20081;-58
2021/07/18 02:58:55;;;;;;;13.32;8.93;;;;;;;23.73;100.00;96404.16;5041581;28;20451;-57
2021/07/18 03:01:23;;;;;;;15.80;9.05;;;;;;;23.66;100.00;96401.53;5044380;28;20141;-57
2021/07/18 03:03:52;;;;;;;15.45;9.50;;;;;;;23.95;100.00;96404.47;5038059;28;20574;-57
2021/07/18 03:06:22;;;;;;;15.13;8.52;;;;;;;23.54;100.00;96404.19;5043911;28;20065;-58
2021/07/18 03:08:50;;;;;;;17.38;8.77;;;;;;;23.83;100.00;96405.25;5040321;28;20171;-57
2021/07/18 03:11:18;;;;;;;15.50;8.60;;;;;;;23.60;100.00;96397.06;5036548;28;21320;-55
2021/07/18 03:13:47;;;;;;;13.35;8.18;;;;;;;23.33;100.00;96397.44;5040632;28;20088;-59
2021/07/18 03:16:15;;;;;;;14.07;8.23;;;;;;;23.33;100.00;96393.91;5041176;28;20064;-57
2021/07/18 03:18:44;;;;;;;13.10;7.88;;;;;;;23.21;100.00;96388.47;5037571;28;20068;-57
2021/07/18 03:21:12;;;;;;;11.95;8.70;;;;;;;23.71;100.00;96387.41;5035130;28;20061;-59
2021/07/18 03:23:42;;;;;;;14.35;8.30;;;;;;;23.32;100.00;96389.56;5041380;28;20071;-56
2021/07/18 03:26:10;;;;;;;18.13;8.57;;;;;;;23.53;100.00;96393.66;5043700;28;20076;-58
2021/07/18 03:28:38;;;;;;;22.65;8.88;;;;;;;23.48;100.00;96406.97;5041831;28;20065;-57
2021/07/18 03:31:07;;;;;;;15.02;8.43;;;;;;;23.24;100.00;96398.78;5038862;28;20080;-59
2021/07/18 03:33:35;;;;;;;15.50;8.90;;;;;;;23.38;100.00;96394.88;5036632;28;20072;-60
2021/07/18 03:36:04;;;;;;;13.10;8.75;;;;;;;23.33;100.00;96396.59;5039908;28;20072;-56
2021/07/18 03:38:33;;;;;;;21.65;8.63;;;;;;;23.37;100.00;96393.25;5039345;28;20749;-57
2021/07/18 03:41:02;;;;;;;17.15;8.63;;;;;;;23.18;100.00;96389.75;5041057;28;20096;-59
2021/07/18 03:43:31;;;;;;;13.77;8.45;;;;;;;23.22;100.00;96399.00;5039404;28;20068;-56
2021/07/18 03:45:59;;;;;;;13.02;8.23;;;;;;;23.30;100.00;96399.75;5039541;28;21643;-60
2021/07/18 03:48:28;;;;;;;15.25;8.18;;;;;;;22.94;100.00;96399.53;5038053;28;20069;-59
2021/07/18 03:50:56;;;;;;;11.75;7.30;;;;;;;22.88;100.00;96402.25;5038039;28;20064;-58
2021/07/18 03:53:24;;;;;;;8.88;6.40;;;;;;;22.81;100.00;96405.03;5037333;28;20080;-59
2021/07/18 03:55:52;;;;;;;12.55;6.80;;;;;;;22.85;100.00;96413.47;5043927;28;20080;-56
2021/07/18 03:58:22;;;;;;;11.43;7.45;;;;;;;23.25;100.00;96400.41;5038479;28;20064;-57
2021/07/18 04:00:50;;;;;;;11.50;6.70;;;;;;;23.09;100.00;96409.09;5037899;28;20163;-57
2021/07/18 04:03:19;;;;;;;14.15;6.38;;;;;;;22.80;100.00;96403.38;5038181;28;20616;-58
2021/07/18 04:05:47;;;;;;;13.40;6.72;;;;;;;23.04;100.00;96404.41;5037340;28;20107;-59
2021/07/18 04:08:17;;;;;;;15.80;7.20;;;;;;;23.39;100.00;96407.28;5039169;28;20072;-58
2021/07/18 04:10:45;;;;;;;13.50;7.03;;;;;;;23.22;100.00;96403.56;5037374;28;20077;-59
2021/07/18 04:13:13;;;;;;;9.27;6.00;;;;;;;23.10;100.00;96397.31;5034660;28;20428;-59
2021/07/18 04:15:43;;;;;;;12.68;6.50;;;;;;;23.03;100.00;96404.63;5035076;28;20076;-60
2021/07/18 04:18:11;;;;;;;12.88;6.25;;;;;;;23.19;100.00;96414.78;5040613;28;20555;-60
2021/07/18 04:20:40;;;;;;;12.18;6.07;;;;;;;23.43;100.00;96413.88;5035190;28;20075;-60
2021/07/18 04:23:10;;;;;;;11.45;6.40;;;;;;;23.35;100.00;96411.47;5045588;28;20076;-59
2021/07/18 04:25:38;;;;;;;9.38;5.38;;;;;;;23.06;100.00;96415.78;5037829;28;20436;-60
2021/07/18 04:28:07;;;;;;;11.52;5.95;;;;;;;23.11;100.00;96415.91;5036854;28;20061;-60
2021/07/18 04:30:35;;;;;;;9.38;5.93;;;;;;;23.11;100.00;96417.78;5041301;28;20465;-59
2021/07/18 04:33:05;;;;;;;9.52;5.50;;;;;;;23.24;100.00;96419.50;5041240;28;20064;-60
2021/07/18 04:35:33;;;;;;;9.63;5.50;;;;;;;23.12;100.00;96425.59;5044511;28;20076;-57
2021/07/18 04:38:03;;;;;;;9.40;5.57;;;;;;;23.57;100.00;96424.44;5047472;28;20130;-58
2021/07/18 04:40:32;;;;;;;11.25;5.40;;;;;;;23.28;100.00;96424.19;5037426;28;20060;-60
2021/07/18 04:43:00;;;;;;;9.23;5.00;;;;;;;23.41;100.00;96426.72;5039200;28;20065;-58
2021/07/18 04:45:29;;;;;;;10.63;5.18;;;;;;;23.42;100.00;96435.59;5041543;28;20073;-60
2021/07/18 04:47:59;;;;;;;9.70;4.72;;;;;;;22.79;100.00;96430.50;5041979;28;20072;-59
2021/07/18 04:50:29;;;;;;;9.45;5.05;;;;;;;23.12;100.00;96435.56;5040140;28;20045;-59
2021/07/18 04:52:57;;;;;;;10.23;4.88;;;;;;;23.23;100.00;96432.13;5046219;28;20093;-59
2021/07/18 04:55:26;;;;;;;7.97;4.70;;;;;;;23.20;100.00;96441.47;5046372;28;20056;-58
2021/07/18 04:57:54;;;;;;;9.88;4.95;;;;;;;23.19;100.00;96438.97;5044387;28;20075;-59
2021/07/18 05:00:23;;;;;;;9.73;4.53;;;;;;;23.39;100.00;96439.56;5043395;28;20063;-60
2021/07/18 05:02:52;;;;;;;6.80;4.18;;;;;;;23.06;100.00;96437.28;5040381;28;20057;-60
2021/07/18 05:05:21;;;;;;;8.10;4.40;;;;;;;23.38;100.00;96443.31;5039667;28;20084;-60
2021/07/18 05:07:52;;;;;;;12.02;4.38;;;;;;;23.14;100.00;96453.13;5046876;28;20156;-59
2021/07/18 05:10:22;;;;;;;12.55;4.70;;;;;;;23.27;100.00;96452.16;5042883;28;20121;-59
2021/07/18 05:12:52;;;;;;;9.30;4.28;;;;;;;23.12;100.00;96455.19;5038880;28;20068;-60
2021/07/18 05:15:21;;;;;;;;;;;;;;;22.86;100.00;96455.47;5041861;28;20061;-58
2021/07/18 05:17:49;;;;;;;6.32;3.90;;;;;;;23.17;100.00;96449.16;5041552;28;20035;-59
2021/07/18 05:20:21;;;;;;;7.13;4.20;;;;;;;23.44;100.00;96455.88;5038094;28;20096;-55
2021/07/18 05:22:51;;;;;;;10.65;4.00;;;;;;;23.03;100.00;96461.13;5042914;28;20474;-57
2021/07/18 05:25:19;;;;;;;9.10;4.38;;;;;;;23.40;100.00;96457.38;5042970;28;20061;-60
2021/07/18 05:27:48;;;;;;;8.02;4.55;;;;;;;23.50;100.00;96454.13;5038440;28;20068;-59
2021/07/18 05:30:16;;;;;;;6.47;4.07;;;;;;;23.51;100.00;96457.66;5035106;28;20454;-59
2021/07/18 05:32:44;;;;;;;10.30;4.22;;;;;;;23.42;100.00;96459.84;5042034;28;20065;-59
2021/07/18 05:35:13;;;;;;;9.90;4.50;;;;;;;23.95;100.00;96464.56;5041284;28;20316;-58
2021/07/18 05:37:41;;;;;;;7.90;4.43;;;;;;;23.79;100.00;96466.03;5040067;28;20856;-60
2021/07/18 05:40:13;;;;;;;8.10;4.38;;;;;;;24.09;100.00;96459.81;5041918;28;20523;-60
2021/07/18 05:42:41;;;;;;;6.00;4.10;;;;;;;23.89;100.00;96463.59;5040924;28;20071;-61
2021/07/18 05:45:11;;;;;;;8.32;3.78;;;;;;;23.58;100.00;96464.59;5038715;28;20064;-58
2021/07/18 05:47:40;;;;;;;6.30;3.53;;;;;;;24.05;100.00;96464.00;5044288;28;20060;-60
2021/07/18 05:50:10;;;;;;;8.07;3.63;;;;;;;23.96;100.00;96465.38;5042156;28;20081;-60
2021/07/18 05:52:38;;;;;;;7.43;4.00;;;;;;;23.64;100.00;96457.47;5037815;28;20628;-60
2021/07/18 05:55:09;;;;;;;7.72;3.95;;;;;;;23.86;100.00;96458.66;5042779;28;20135;-59
2021/07/18 05:57:38;;;;;;;6.35;3.80;;;;;;;24.02;100.00;96464.44;5041255;28;20069;-58
2021/07/18 06:00:09;;;;;;;6.38;3.80;;;;;;;23.69;100.00;96463.06;5041794;28;20075;-60
2021/07/18 06:02:37;;;;;;;9.38;4.30;;;;;;;23.95;100.00;96469.97;5037994;28;20068;-61
2021/07/18 06:05:07;;;;;;;7.30;3.97;;;;;;;24.32;100.00;96480.59;5036871;28;20095;-59
2021/07/18 06:07:35;;;;;;;10.70;4.60;;;;;;;24.45;100.00;96474.22;5043442;28;20064;-61
2021/07/18 06:10:05;;;;;;;7.20;4.10;;;;;;;24.24;100.00;96479.06;5037193;28;20065;-61
2021/07/18 06:12:34;;;;;;;6.93;3.83;;;;;;;23.75;100.00;96474.78;5036775;28;20056;-60
2021/07/18 06:15:05;;;;;;;10.45;3.95;;;;;;;24.02;100.00;96477.91;5039370;28;20528;-57
2021/07/18 06:17:35;;;;;;;7.07;4.10;;;;;;;24.43;100.00;96479.00;5038024;28;20465;-59
2021/07/18 06:20:06;;;;;;;8.98;4.20;;;;;;;24.44;100.00;96478.78;5039969;28;20083;-61
2021/07/18 06:22:35;;;;;;;7.65;4.60;;;;;;;24.40;100.00;96483.00;5038747;28;20579;-61
2021/07/18 06:25:05;;;;;;;9.98;3.80;;;;;;;24.41;100.00;96478.44;5043068;28;20068;-60
2021/07/18 06:27:35;;;;;;;8.43;4.13;;;;;;;24.11;100.00;96484.63;5039379;28;20067;-61
2021/07/18 06:30:05;;;;;;;8.25;4.18;;;;;;;24.73;100.00;96485.13;5043043;28;20068;-59
2021/07/18 06:32:34;;;;;;;7.35;4.13;;;;;;;24.38;100.00;96488.56;5037358;28;20068;-62
2021/07/18 06:35:02;;;;;;;7.30;4.10;;;;;;;24.62;100.00;96499.44;5043023;28;20076;-61
2021/07/18 06:37:31;;;;;;;7.28;4.28;;;;;;;24.53;100.00;96498.13;5040926;28;20068;-60
2021/07/18 06:39:59;;;;;;;9.02;4.20;;;;;;;24.35;100.00;96488.22;5040520;28;20073;-61
2021/07/18 06:42:28;;;;;;;8.82;4.35;;;;;;;24.63;100.00;96493.78;5039640;28;20068;-59
2021/07/18 06:44:58;;;;;;;8.02;4.65;;;;;;;25.29;100.00;96494.56;5038887;28;20094;-61
2021/07/18 06:47:28;;;;;;;7.03;4.40;;;;;;;25.06;100.00;96500.75;5037398;28;20085;-61
2021/07/18 06:49:57;;;;;;;10.00;4.32;;;;;;;25.25;100.00;96501.44;5041994;28;20076;-61
2021/07/18 06:52:26;;;;;;;6.55;4.13;;;;;;;25.55;100.00;96500.47;5035783;28;20080;-59
2021/07/18 06:54:54;;;;;;;7.75;4.38;;;;;;;25.46;100.00;96499.19;5041135;28;20068;-61
2021/07/18 06:57:23;;;;;;;7.45;4.25;;;;;;;25.71;100.00;96499.75;5038846;28;20079;-61
2021/07/18 06:59:52;;;;;;;10.88;4.07;;;;;;;26.01;100.00;96501.41;5040538;28;20448;-59
2021/07/18 07:02:20;;;;;;;5.93;4.25;;;;;;;25.73;100.00;96507.59;5038250;28;20088;-59
2021/07/18 07:04:50;;;;;;;5.93;4.20;;;;;;;25.84;100.00;96514.03;5038357;28;20084;-60
2021/07/18 07:07:18;;;;;;;10.70;4.60;;;;;;;26.02;100.00;96512.00;5042156;28;20065;-61
2021/07/18 07:09:47;;;;;;;11.05;4.25;;;;;;;25.90;100.00;96513.91;5038858;28;20076;-61
2021/07/18 07:12:15;;;;;;;7.60;4.35;;;;;;;25.96;100.00;96512.94;5039494;28;20064;-61
2021/07/18 07:14:45;;;;;;;6.03;4.07;;;;;;;25.60;100.00;96519.47;5032844;28;20064;-61
2021/07/18 07:17:13;;;;;;;7.50;4.35;;;;;;;26.59;100.00;96515.72;5042325;28;20081;-61
2021/07/18 07:19:42;;;;;;;7.22;4.15;;;;;;;25.94;100.00;96522.34;5041108;28;21176;-61
2021/07/18 07:22:12;;;;;;;5.90;4.18;;;;;;;26.12;100.00;96519.47;5041624;28;20470;-61
2021/07/18 07:24:40;;;;;;;8.98;4.97;;;;;;;26.85;100.00;96514.25;5038021;28;20069;-61
2021/07/18 07:27:08;;;;;;;7.00;4.88;;;;;;;27.24;100.00;96519.75;5039502;28;20068;-62
2021/07/18 07:29:37;;;;;;;7.00;4.63;;;;;;;26.79;100.00;96518.75;5035711;28;20064;-61
2021/07/18 07:32:06;;;;;;;6.90;4.72;;;;;;;26.49;100.00;96524.47;5043269;28;20084;-61
2021/07/18 07:34:35;;;;;;;10.93;4.85;;;;;;;26.26;100.00;96534.34;5035946;28;20077;-61
2021/07/18 07:37:04;;;;;;;10.77;4.57;;;;;;;26.16;100.00;96526.03;5034278;28;20487;-61
2021/07/18 07:39:34;;;;;;;7.43;4.90;;;;;;;26.43;100.00;96531.66;5034159;28;20068;-61
2021/07/18 07:42:02;;;;;;;14.07;7.53;;;;;;;26.58;100.00;96525.72;5034106;28;20794;-61
2021/07/18 07:44:32;;;;;;;7.90;5.20;;;;;;;26.20;100.00;96529.88;5034165;28;20077;-61
2021/07/18 07:47:01;;;;;;;10.75;5.10;;;;;;;25.69;100.00;96541.53;5044468;28;20534;-60
2021/07/18 07:49:30;;;;;;;7.00;5.18;;;;;;;26.04;100.00;96534.19;5041426;28;20065;-61
2021/07/18 07:51:58;;;;;;;10.13;5.10;;;;;;;25.97;100.00;96538.91;5041390;28;20069;-61
2021/07/18 07:54:27;;;;;;;7.15;5.03;;;;;;;26.20;100.00;96532.59;5036017;28;20079;-60
2021/07/18 07:56:56;;;;;;;7.82;5.13;;;;;;;26.14;100.00;96538.97;5037533;28;20065;-61
2021/07/18 07:59:25;;;;;;;9.27;5.55;;;;;;;26.63;100.00;96536.63;5038302;28;20088;-61
2021/07/18 08:01:53;;;;;;;9.45;6.07;;;;;;;26.46;100.00;96542.00;5040357;28;20076;-60
2021/07/18 08:04:22;;;;;;;7.47;5.65;;;;;;;27.03;100.00;96535.66;5036079;28;20068;-60
2021/07/18 08:06:50;;;;;;;8.38;5.68;;;;;;;27.43;100.00;96531.94;5038993;28;20088;-61
2021/07/18 08:09:19;;;;;;;8.10;5.88;;;;;;;27.32;100.00;96532.84;5045253;28;20084;-61
2021/07/18 08:11:47;;;;;;;8.15;5.70;;;;;;;27.81;100.00;96535.72;5036302;28;20428;-61
2021/07/18 08:14:19;;;;;;;7.82;5.82;;;;;;;27.74;100.00;96540.47;5040445;28;20084;-60
2021/07/18 08:16:48;;;;;;;8.88;6.30;;;;;;;27.77;100.00;96535.41;5043076;28;20523;-60
2021/07/18 08:19:16;;;;;;;9.43;6.30;;;;;;;27.96;100.00;96541.31;5041887;28;20069;-60
2021/07/18 08:21:45;;;;;;;7.45;6.35;;;;;;;28.72;97.77;96545.91;5041511;28;20531;-61
2021/07/18 08:24:13;;;;;;;10.93;6.28;;;;;;;28.63;93.68;96554.53;5038656;28;20075;-60
2021/07/18 08:26:42;;;;;;;10.05;6.95;;;;;;;28.42;96.06;96557.28;5035404;28;20539;-60
2021/07/18 08:29:10;;;;;;;11.15;6.57;;;;;;;28.41;96.99;96561.91;5045920;28;20080;-62
2021/07/18 08:31:40;;;;;;;9.98;5.93;;;;;;;28.15;95.31;96556.19;5039263;28;20719;-61
2021/07/18 08:34:08;;;;;;;11.07;6.82;;;;;;;28.57;93.18;96555.56;5033663;28;20065;-61
2021/07/18 08:36:37;;;;;;;8.30;6.53;;;;;;;28.63;94.90;96559.97;5038727;28;20068;-61
2021/07/18 08:39:05;;;;;;;11.10;7.70;;;;;;;27.85;99.45;96561.25;5040442;28;20623;-61
2021/07/18 08:41:34;;;;;;;10.20;7.20;;;;;;;27.43;100.00;96559.84;5045085;28;20526;-60
2021/07/18 08:44:02;;;;;;;10.20;8.00;;;;;;;27.86;100.00;96554.75;5047267;28;20087;-59
2021/07/18 08:46:31;;;;;;;12.95;9.02;;;;;;;27.80;100.00;96558.44;5043347;28;20076;-61
2021/07/18 08:49:01;;;;;;;12.27;9.07;;;;;;;27.64;100.00;96560.13;5047027;28;20076;-61
2021/07/18 08:51:31;;;;;;;12.10;9.95;;;;;;;27.85;100.00;96558.53;5037307;28;20069;-60
2021/07/18 08:54:00;;;;;;;14.40;10.50;;;;;;;28.06;100.00;96557.69;5036738;28;20229;-60
2021/07/18 08:56:31;;;;;;;14.05;10.07;;;;;;;27.55;100.00;96561.63;5038266;28;20711;-59
2021/07/18 08:59:00;;;;;;;14.05;10.10;;;;;;;28.74;94.85;96555.44;5043225;28;20080;-60
2021/07/18 09:01:28;;;;;;;14.13;10.65;;;;;;;29.02;95.22;96554.34;5042273;28;20049;-58
2021/07/18 09:03:57;;;;;;;14.35;10.88;;;;;;;29.02;91.23;96556.25;5036259;28;20458;-60
2021/07/18 09:06:39;;;;;;;13.60;10.93;;;;;;;28.92;88.42;96562.38;5039588;28;20057;-59
2021/07/18 09:09:09;;;;;;;12.70;10.40;;;;;;;28.82;88.78;96554.16;5039977;28;20469;-62
2021/07/18 09:11:37;;;;;;;12.05;10.40;;;;;;;29.46;84.31;96562.25;5039617;28;20064;-60
2021/07/18 09:14:07;;;;;;;13.70;11.15;;;;;;;29.30;83.05;96555.09;5045534;28;20081;-61
2021/07/18 09:16:36;;;;;;;12.18;10.90;;;;;;;29.09;87.77;96560.38;5046612;28;20064;-60
2021/07/18 09:19:16;;;;;;;14.23;11.27;;;;;;;30.30;76.72;96560.50;5042017;28;20071;-61
2021/07/18 09:21:52;;;;;;;14.70;10.90;;;;;;;29.47;82.37;96560.34;5034421;28;20068;-60
2021/07/18 09:24:21;;;;;;;14.48;10.23;;;;;;;29.73;81.83;96564.03;5037970;28;20508;-60
2021/07/18 09:27:04;;;;;;;15.07;10.65;;;;;;;29.52;85.22;96555.75;5042536;28;20082;-60
2021/07/18 09:29:32;;;;;;;15.82;11.18;;;;;;;29.83;85.13;96569.53;5043925;28;20150;-59
2021/07/18 09:32:06;;;;;;;15.27;11.43;;;;;;;28.67;93.05;96562.97;5047755;28;20558;-60
2021/07/18 09:34:37;;;;;;;17.00;13.20;;;;;;;29.09;90.75;96562.28;5039164;28;20065;-60
2021/07/18 09:37:10;;;;;;;16.55;12.73;;;;;;;28.34;99.39;96564.78;5043123;28;20068;-60
2021/07/18 09:39:39;;;;;;;16.27;13.52;;;;;;;28.81;99.13;96575.03;5041897;28;20065;-60
2021/07/18 09:42:08;;;;;;;13.77;11.20;;;;;;;27.83;100.00;96568.78;5041409;28;20080;-59
2021/07/18 09:44:44;;;;;;;14.18;10.63;;;;;;;27.19;100.00;96572.75;5041932;28;20065;-59
2021/07/18 09:47:13;;;;;;;16.45;12.05;;;;;;;27.23;100.00;96567.66;5035579;28;20081;-56
2021/07/18 09:49:41;;;;;;;15.95;11.88;;;;;;;28.17;100.00;96567.56;5041114;28;20456;-58
2021/07/18 09:52:19;;;;;;;17.10;12.80;;;;;;;27.70;100.00;96572.66;5041534;28;20073;-60
2021/07/18 09:54:49;;;;;;;18.50;14.48;;;;;;;27.72;100.00;96573.22;5036459;28;20550;-59
2021/07/18 09:57:40;;;;;;;18.00;13.85;;;;;;;28.14;100.00;96573.50;5038405;28;20068;-59
2021/07/18 10:00:10;;;;;;;17.88;14.63;;;;;;;27.36;100.00;96577.34;5037810;28;20534;-57
2021/07/18 10:02:41;;;;;;;18.98;14.45;;;;;;;26.82;100.00;96579.69;5039720;28;20064;-59
2021/07/18 10:05:16;;;;;;;22.42;15.25;;;;;;;28.21;100.00;96573.31;5035874;28;20088;-59
2021/07/18 10:07:46;;;;;;;20.17;14.45;;;;;;;27.72;100.00;96581.34;5036465;28;20301;-59
2021/07/18 10:10:14;;;;;;;18.08;13.95;;;;;;;27.90;100.00;96572.13;5041074;28;20065;-60
2021/07/18 10:12:43;;;;;;;18.13;14.43;;;;;;;27.82;100.00;96575.28;5040083;28;20072;-60
2021/07/18 10:15:13;;;;;;;15.75;12.90;;;;;;;27.33;100.00;96565.13;5035973;28;20068;-60
2021/07/18 10:17:41;;;;;;;19.30;15.20;;;;;;;27.85;100.00;96574.78;5039457;28;20069;-61
2021/07/18 10:20:11;;;;;;;18.48;14.75;;;;;;;28.36;100.00;96570.78;5041211;28;20554;-60
2021/07/18 10:22:39;;;;;;;21.77;13.75;;;;;;;28.34;100.00;96572.91;5041984;28;20129;-60
2021/07/18 10:25:13;;;;;;;16.13;13.30;;;;;;;28.53;100.00;96564.47;5035158;28;20069;-56
2021/07/18 10:27:42;;;;;;;20.05;14.43;;;;;;;28.45;100.00;96571.16;5042778;28;20079;-60
2021/07/18 10:30:13;;;;;;;16.37;13.20;;;;;;;28.14;100.00;96565.38;5036713;28;20064;-60
2021/07/18 10:32:41;;;;;;;17.83;14.35;;;;;;;28.51;100.00;96567.44;5038256;28;20075;-59
2021/07/18 10:35:11;;;;;;;21.58;14.48;;;;;;;28.00;100.00;96569.53;5043203;28;20092;-60
2021/07/18 10:37:41;;;;;;;19.33;14.98;;;;;;;27.79;100.00;96565.75;5037754;28;20299;-60
2021/07/18 10:40:15;;;;;;;19.30;14.90;;;;;;;27.67;100.00;96571.28;5041574;28;20057;-60
2021/07/18 10:42:44;;;;;;;18.70;15.48;;;;;;;28.74;95.21;96573.63;5039733;28;20080;-60
2021/07/18 10:45:17;;;;;;;20.52;16.27;;;;;;;29.35;90.07;96565.97;5032012;28;20041;-59
2021/07/18 10:47:59;;;;;;;19.35;14.30;;;;;;;28.91;83.80;96559.94;5035977;28;20061;-58
2021/07/18 10:50:46;;;;;;;18.40;15.35;;;;;;;30.25;78.76;96555.88;5038561;28;20526;-59
2021/07/18 10:53:20;;;;;;;18.52;15.00;;;;;;;31.47;71.62;96556.25;5042903;28;20103;-60
2021/07/18 10:55:51;;;;;;;18.08;13.57;;;;;;;30.44;77.13;96556.19;5038022;28;20470;-61
2021/07/18 10:58:45;;;;;;;21.95;18.10;;;;;;;30.80;72.45;96549.97;5031731;28;20073;-61
2021/07/18 11:01:36;;;;;;;16.52;13.75;;;;;;;30.32;79.50;96560.22;5041272;28;20072;-60
2021/07/18 11:04:07;;;;;;;17.17;14.57;;;;;;;30.76;69.64;96551.63;5041982;28;20548;-59
2021/07/18 11:06:37;;;;;;;17.55;14.57;;;;;;;31.33;64.42;96553.28;5035562;28;20064;-60
2021/07/18 11:09:12;;;;;;;19.30;16.92;;;;;;;31.44;64.37;96552.97;5034708;28;20435;-61
2021/07/18 11:11:43;;;;;;;18.77;15.38;;;;;;;31.26;65.09;96553.53;5043699;28;20618;-60
2021/07/18 11:14:26;;;;;;;17.83;15.57;;;;;;;30.87;64.77;96554.09;5038935;28;20107;-59
2021/07/18 11:16:56;;;;;;;18.25;14.50;;;;;;;30.13;73.87;96559.88;5035192;28;20466;-60
2021/07/18 11:19:56;;;;;;;17.88;14.40;;;;;;;30.66;69.92;96555.97;5043638;28;20083;-58
2021/07/18 11:22:59;;;;;;;19.20;14.10;;;;;;;30.29;70.54;96566.22;5038371;28;20076;-59
2021/07/18 11:25:46;;;;;;;18.00;13.77;;;;;;;30.56;70.38;96550.50;5032064;28;20076;-61
2021/07/18 11:28:39;;;;;;;17.15;13.48;;;;;;;30.61;68.96;96550.50;5033001;28;20550;-59
2021/07/18 11:31:35;;;;;;;17.85;14.13;;;;;;;30.27;71.13;96550.97;5037652;28;20067;-60